CGN weather

Cologne Bonn Airport
Cologne, North Rhine-Westphalia, Germany

Public forecast

Using degrees Celsius for public forecast. Weather courtesy of forecast.io.

Current aviation weather report (METAR) for Cologne Bonn Airport

Retrieved 2019/11/19 16:20 UTC (33 minutes ago):

EDDK 191620Z VRB01KT 9999 FEW028 BKN042 04/03 Q1018 NOSIG

Aviation forecast (TAF) for Cologne Bonn Airport

Retrieved 2019/11/19 12:27 UTC (4 hours ago):

TAF EDDK 191100Z 1912/2018 21006KT 9999 BKN020 PROB40 TEMPO 1912/1916 RA BKN012 BECMG 1914/1918 VRB02KT TEMPO 2006/2010 2500 BR PROB30 TEMPO 2007/2009 1400 BR BKN008 BECMG 2007/2010 11005KT